sensor_id;sensor_type;location;lat;lon;timestamp;P1;durP1;ratioP1;P2;durP2;ratioP2
19605;SDS011;9950;50.168;8.210;2023-12-07T00:01:10;26.08;;;15.20;;
19605;SDS011;9950;50.168;8.210;2023-12-07T00:03:37;31.80;;;17.00;;
19605;SDS011;9950;50.168;8.210;2023-12-07T00:06:04;33.22;;;16.42;;
19605;SDS011;9950;50.168;8.210;2023-12-07T00:08:31;24.88;;;14.68;;
19605;SDS011;9950;50.168;8.210;2023-12-07T00:11:00;25.38;;;15.00;;
19605;SDS011;9950;50.168;8.210;2023-12-07T00:13:27;23.50;;;13.23;;
19605;SDS011;9950;50.168;8.210;2023-12-07T00:15:54;24.23;;;14.05;;
19605;SDS011;9950;50.168;8.210;2023-12-07T00:18:21;23.80;;;13.85;;
19605;SDS011;9950;50.168;8.210;2023-12-07T00:20:49;28.70;;;15.15;;
19605;SDS011;9950;50.168;8.210;2023-12-07T00:23:16;26.23;;;14.32;;
19605;SDS011;9950;50.168;8.210;2023-12-07T00:25:43;24.77;;;14.30;;
19605;SDS011;9950;50.168;8.210;2023-12-07T00:28:12;21.83;;;13.00;;
19605;SDS011;9950;50.168;8.210;2023-12-07T00:30:39;25.85;;;12.82;;
19605;SDS011;9950;50.168;8.210;2023-12-07T00:33:07;26.70;;;13.88;;
19605;SDS011;9950;50.168;8.210;2023-12-07T00:35:35;23.73;;;12.68;;
19605;SDS011;9950;50.168;8.210;2023-12-07T00:38:02;24.98;;;12.88;;
19605;SDS011;9950;50.168;8.210;2023-12-07T00:40:31;23.95;;;13.05;;
19605;SDS011;9950;50.168;8.210;2023-12-07T00:43:01;24.02;;;12.80;;
19605;SDS011;9950;50.168;8.210;2023-12-07T00:45:29;21.50;;;12.50;;
19605;SDS011;9950;50.168;8.210;2023-12-07T00:47:56;30.67;;;13.27;;
19605;SDS011;9950;50.168;8.210;2023-12-07T00:50:24;26.05;;;13.63;;
19605;SDS011;9950;50.168;8.210;2023-12-07T00:52:51;21.95;;;13.10;;
19605;SDS011;9950;50.168;8.210;2023-12-07T00:55:18;23.90;;;13.82;;
19605;SDS011;9950;50.168;8.210;2023-12-07T00:57:45;23.65;;;12.63;;
19605;SDS011;9950;50.168;8.210;2023-12-07T01:00:13;21.33;;;12.70;;
19605;SDS011;9950;50.168;8.210;2023-12-07T01:02:42;26.35;;;13.57;;
19605;SDS011;9950;50.168;8.210;2023-12-07T01:05:09;25.13;;;12.48;;
19605;SDS011;9950;50.168;8.210;2023-12-07T01:07:36;24.02;;;13.32;;
19605;SDS011;9950;50.168;8.210;2023-12-07T01:10:04;30.25;;;15.27;;
19605;SDS011;9950;50.168;8.210;2023-12-07T01:12:31;27.55;;;14.80;;
19605;SDS011;9950;50.168;8.210;2023-12-07T01:14:58;32.80;;;14.80;;
19605;SDS011;9950;50.168;8.210;2023-12-07T01:17:25;33.40;;;16.02;;
19605;SDS011;9950;50.168;8.210;2023-12-07T01:19:54;27.17;;;14.40;;
19605;SDS011;9950;50.168;8.210;2023-12-07T01:22:21;30.90;;;15.43;;
19605;SDS011;9950;50.168;8.210;2023-12-07T01:24:48;33.58;;;15.25;;
19605;SDS011;9950;50.168;8.210;2023-12-07T01:27:15;29.13;;;15.18;;
19605;SDS011;9950;50.168;8.210;2023-12-07T01:29:43;29.38;;;15.45;;
19605;SDS011;9950;50.168;8.210;2023-12-07T01:32:10;30.42;;;14.63;;
19605;SDS011;9950;50.168;8.210;2023-12-07T01:34:37;29.67;;;15.38;;
19605;SDS011;9950;50.168;8.210;2023-12-07T01:37:06;29.50;;;14.93;;
19605;SDS011;9950;50.168;8.210;2023-12-07T01:39:33;27.08;;;14.93;;
19605;SDS011;9950;50.168;8.210;2023-12-07T01:42:00;29.13;;;15.27;;
19605;SDS011;9950;50.168;8.210;2023-12-07T01:44:27;27.83;;;14.57;;
19605;SDS011;9950;50.168;8.210;2023-12-07T01:46:54;27.38;;;14.45;;
19605;SDS011;9950;50.168;8.210;2023-12-07T01:49:21;27.38;;;14.20;;
19605;SDS011;9950;50.168;8.210;2023-12-07T01:51:49;25.95;;;13.63;;
19605;SDS011;9950;50.168;8.210;2023-12-07T01:54:17;36.75;;;16.23;;
19605;SDS011;9950;50.168;8.210;2023-12-07T01:56:44;31.23;;;16.17;;
19605;SDS011;9950;50.168;8.210;2023-12-07T01:59:11;27.98;;;15.10;;
19605;SDS011;9950;50.168;8.210;2023-12-07T02:01:40;30.35;;;15.85;;
19605;SDS011;9950;50.168;8.210;2023-12-07T02:04:07;31.52;;;15.43;;
19605;SDS011;9950;50.168;8.210;2023-12-07T02:06:34;39.10;;;16.92;;
19605;SDS011;9950;50.168;8.210;2023-12-07T02:09:01;33.33;;;16.40;;
19605;SDS011;9950;50.168;8.210;2023-12-07T02:11:30;35.72;;;16.38;;
19605;SDS011;9950;50.168;8.210;2023-12-07T02:13:57;33.78;;;15.18;;
19605;SDS011;9950;50.168;8.210;2023-12-07T02:16:25;45.13;;;17.02;;
19605;SDS011;9950;50.168;8.210;2023-12-07T02:18:58;39.42;;;17.38;;
19605;SDS011;9950;50.168;8.210;2023-12-07T02:21:30;54.00;;;18.35;;
19605;SDS011;9950;50.168;8.210;2023-12-07T02:23:57;53.85;;;18.35;;
19605;SDS011;9950;50.168;8.210;2023-12-07T02:26:30;40.20;;;18.23;;
19605;SDS011;9950;50.168;8.210;2023-12-07T02:28:58;37.85;;;18.23;;
19605;SDS011;9950;50.168;8.210;2023-12-07T02:31:25;36.35;;;18.42;;
19605;SDS011;9950;50.168;8.210;2023-12-07T02:33:53;39.05;;;17.45;;
19605;SDS011;9950;50.168;8.210;2023-12-07T02:36:20;35.20;;;16.95;;
19605;SDS011;9950;50.168;8.210;2023-12-07T02:38:49;33.13;;;17.08;;
19605;SDS011;9950;50.168;8.210;2023-12-07T02:41:17;36.45;;;16.35;;
19605;SDS011;9950;50.168;8.210;2023-12-07T02:43:46;33.15;;;16.23;;
19605;SDS011;9950;50.168;8.210;2023-12-07T02:46:13;33.42;;;15.88;;
19605;SDS011;9950;50.168;8.210;2023-12-07T02:48:41;33.78;;;16.42;;
19605;SDS011;9950;50.168;8.210;2023-12-07T02:51:08;40.08;;;17.65;;
19605;SDS011;9950;50.168;8.210;2023-12-07T02:53:35;35.95;;;17.30;;
19605;SDS011;9950;50.168;8.210;2023-12-07T02:56:02;32.97;;;16.92;;
19605;SDS011;9950;50.168;8.210;2023-12-07T02:58:29;37.97;;;16.55;;
19605;SDS011;9950;50.168;8.210;2023-12-07T03:00:58;33.28;;;15.73;;
19605;SDS011;9950;50.168;8.210;2023-12-07T03:03:28;32.80;;;15.82;;
19605;SDS011;9950;50.168;8.210;2023-12-07T03:05:55;36.65;;;17.48;;
19605;SDS011;9950;50.168;8.210;2023-12-07T03:08:22;71.30;;;19.27;;
19605;SDS011;9950;50.168;8.210;2023-12-07T03:10:49;68.35;;;18.35;;
19605;SDS011;9950;50.168;8.210;2023-12-07T03:13:16;97.43;;;19.55;;
19605;SDS011;9950;50.168;8.210;2023-12-07T03:15:43;183.35;;;22.13;;
19605;SDS011;9950;50.168;8.210;2023-12-07T03:18:12;170.40;;;22.27;;
19605;SDS011;9950;50.168;8.210;2023-12-07T03:20:39;199.25;;;21.05;;
19605;SDS011;9950;50.168;8.210;2023-12-07T03:23:06;217.80;;;21.25;;
19605;SDS011;9950;50.168;8.210;2023-12-07T03:25:33;220.38;;;23.83;;
19605;SDS011;9950;50.168;8.210;2023-12-07T03:28:00;103.15;;;18.95;;
19605;SDS011;9950;50.168;8.210;2023-12-07T03:30:27;60.78;;;18.33;;
19605;SDS011;9950;50.168;8.210;2023-12-07T03:32:55;47.15;;;18.10;;
19605;SDS011;9950;50.168;8.210;2023-12-07T03:35:23;38.58;;;16.42;;
19605;SDS011;9950;50.168;8.210;2023-12-07T03:37:51;33.67;;;16.63;;
19605;SDS011;9950;50.168;8.210;2023-12-07T03:40:18;35.53;;;16.23;;
19605;SDS011;9950;50.168;8.210;2023-12-07T03:42:45;37.53;;;17.88;;
19605;SDS011;9950;50.168;8.210;2023-12-07T03:45:13;36.20;;;16.70;;
19605;SDS011;9950;50.168;8.210;2023-12-07T03:47:40;34.15;;;16.00;;
19605;SDS011;9950;50.168;8.210;2023-12-07T03:50:07;36.92;;;17.52;;
19605;SDS011;9950;50.168;8.210;2023-12-07T03:52:36;40.63;;;17.27;;
19605;SDS011;9950;50.168;8.210;2023-12-07T03:55:03;36.85;;;16.65;;
19605;SDS011;9950;50.168;8.210;2023-12-07T03:57:31;41.17;;;17.60;;
19605;SDS011;9950;50.168;8.210;2023-12-07T03:59:58;36.03;;;17.17;;
19605;SDS011;9950;50.168;8.210;2023-12-07T04:02:25;38.15;;;17.58;;
19605;SDS011;9950;50.168;8.210;2023-12-07T04:04:55;33.58;;;16.05;;
19605;SDS011;9950;50.168;8.210;2023-12-07T04:07:26;35.60;;;17.63;;
19605;SDS011;9950;50.168;8.210;2023-12-07T04:09:55;35.78;;;17.27;;
19605;SDS011;9950;50.168;8.210;2023-12-07T04:12:23;34.65;;;17.20;;
19605;SDS011;9950;50.168;8.210;2023-12-07T04:14:50;32.78;;;15.65;;
19605;SDS011;9950;50.168;8.210;2023-12-07T04:17:17;36.10;;;16.80;;
19605;SDS011;9950;50.168;8.210;2023-12-07T04:19:46;36.72;;;16.52;;
19605;SDS011;9950;50.168;8.210;2023-12-07T04:22:13;32.47;;;15.43;;
19605;SDS011;9950;50.168;8.210;2023-12-07T04:24:40;34.00;;;15.32;;
19605;SDS011;9950;50.168;8.210;2023-12-07T04:27:09;33.72;;;16.38;;
19605;SDS011;9950;50.168;8.210;2023-12-07T04:29:35;36.03;;;16.65;;
19605;SDS011;9950;50.168;8.210;2023-12-07T04:32:02;35.90;;;16.52;;
19605;SDS011;9950;50.168;8.210;2023-12-07T04:34:29;38.97;;;19.35;;
19605;SDS011;9950;50.168;8.210;2023-12-07T04:36:56;39.15;;;18.00;;
19605;SDS011;9950;50.168;8.210;2023-12-07T04:39:24;47.28;;;23.10;;
19605;SDS011;9950;50.168;8.210;2023-12-07T04:41:51;30.73;;;14.98;;
19605;SDS011;9950;50.168;8.210;2023-12-07T04:44:19;35.63;;;16.02;;
19605;SDS011;9950;50.168;8.210;2023-12-07T04:46:46;34.20;;;16.02;;
19605;SDS011;9950;50.168;8.210;2023-12-07T04:49:13;31.25;;;16.90;;
19605;SDS011;9950;50.168;8.210;2023-12-07T04:51:41;34.38;;;16.45;;
19605;SDS011;9950;50.168;8.210;2023-12-07T04:54:11;35.78;;;15.57;;
19605;SDS011;9950;50.168;8.210;2023-12-07T04:56:39;33.05;;;15.43;;
19605;SDS011;9950;50.168;8.210;2023-12-07T04:59:06;29.10;;;15.60;;
19605;SDS011;9950;50.168;8.210;2023-12-07T05:01:35;31.25;;;15.00;;
19605;SDS011;9950;50.168;8.210;2023-12-07T05:04:03;32.15;;;14.35;;
19605;SDS011;9950;50.168;8.210;2023-12-07T05:06:30;33.17;;;15.27;;
19605;SDS011;9950;50.168;8.210;2023-12-07T05:08:57;40.50;;;16.88;;
19605;SDS011;9950;50.168;8.210;2023-12-07T05:11:24;32.28;;;14.50;;
19605;SDS011;9950;50.168;8.210;2023-12-07T05:13:52;36.35;;;15.85;;
19605;SDS011;9950;50.168;8.210;2023-12-07T05:16:19;35.50;;;16.45;;
19605;SDS011;9950;50.168;8.210;2023-12-07T05:18:47;38.25;;;16.38;;
19605;SDS011;9950;50.168;8.210;2023-12-07T05:21:14;31.55;;;14.90;;
19605;SDS011;9950;50.168;8.210;2023-12-07T05:23:42;42.15;;;14.90;;
19605;SDS011;9950;50.168;8.210;2023-12-07T05:26:09;41.45;;;15.68;;
19605;SDS011;9950;50.168;8.210;2023-12-07T05:28:36;41.08;;;15.23;;
19605;SDS011;9950;50.168;8.210;2023-12-07T05:31:03;36.85;;;15.15;;
19605;SDS011;9950;50.168;8.210;2023-12-07T05:33:32;32.33;;;15.07;;
19605;SDS011;9950;50.168;8.210;2023-12-07T05:36:00;34.72;;;15.10;;
19605;SDS011;9950;50.168;8.210;2023-12-07T05:38:28;35.30;;;15.10;;
19605;SDS011;9950;50.168;8.210;2023-12-07T05:40:55;34.15;;;16.15;;
19605;SDS011;9950;50.168;8.210;2023-12-07T05:43:22;33.05;;;15.43;;
19605;SDS011;9950;50.168;8.210;2023-12-07T05:45:50;33.30;;;15.38;;
19605;SDS011;9950;50.168;8.210;2023-12-07T05:48:17;30.33;;;14.60;;
19605;SDS011;9950;50.168;8.210;2023-12-07T05:50:45;37.85;;;16.00;;
19605;SDS011;9950;50.168;8.210;2023-12-07T05:53:13;30.08;;;15.45;;
19605;SDS011;9950;50.168;8.210;2023-12-07T05:55:40;31.63;;;15.30;;
19605;SDS011;9950;50.168;8.210;2023-12-07T05:58:07;30.52;;;14.43;;
19605;SDS011;9950;50.168;8.210;2023-12-07T06:00:34;33.15;;;15.05;;
19605;SDS011;9950;50.168;8.210;2023-12-07T06:03:02;29.63;;;14.55;;
19605;SDS011;9950;50.168;8.210;2023-12-07T06:05:30;31.15;;;15.50;;
19605;SDS011;9950;50.168;8.210;2023-12-07T06:07:57;32.72;;;15.57;;
19605;SDS011;9950;50.168;8.210;2023-12-07T06:10:26;37.85;;;15.50;;
19605;SDS011;9950;50.168;8.210;2023-12-07T06:12:53;44.97;;;16.67;;
19605;SDS011;9950;50.168;8.210;2023-12-07T06:15:21;46.20;;;17.48;;
19605;SDS011;9950;50.168;8.210;2023-12-07T06:17:49;30.88;;;15.40;;
19605;SDS011;9950;50.168;8.210;2023-12-07T06:20:16;40.33;;;16.77;;
19605;SDS011;9950;50.168;8.210;2023-12-07T06:22:43;48.00;;;17.23;;
19605;SDS011;9950;50.168;8.210;2023-12-07T06:25:10;63.60;;;17.17;;
19605;SDS011;9950;50.168;8.210;2023-12-07T06:27:39;68.82;;;16.60;;
19605;SDS011;9950;50.168;8.210;2023-12-07T06:30:06;65.57;;;17.15;;
19605;SDS011;9950;50.168;8.210;2023-12-07T06:32:34;95.88;;;19.45;;
19605;SDS011;9950;50.168;8.210;2023-12-07T06:35:01;150.18;;;19.10;;
19605;SDS011;9950;50.168;8.210;2023-12-07T06:37:29;139.18;;;22.00;;
19605;SDS011;9950;50.168;8.210;2023-12-07T06:39:56;117.95;;;19.05;;
19605;SDS011;9950;50.168;8.210;2023-12-07T06:42:25;170.07;;;21.23;;
19605;SDS011;9950;50.168;8.210;2023-12-07T06:44:53;115.43;;;16.70;;
19605;SDS011;9950;50.168;8.210;2023-12-07T06:47:20;107.57;;;14.93;;
19605;SDS011;9950;50.168;8.210;2023-12-07T06:49:48;148.95;;;17.08;;
19605;SDS011;9950;50.168;8.210;2023-12-07T06:52:15;170.05;;;16.67;;
19605;SDS011;9950;50.168;8.210;2023-12-07T06:54:42;102.47;;;14.18;;
19605;SDS011;9950;50.168;8.210;2023-12-07T06:57:09;159.82;;;14.48;;
19605;SDS011;9950;50.168;8.210;2023-12-07T06:59:37;137.27;;;14.50;;
19605;SDS011;9950;50.168;8.210;2023-12-07T07:02:06;105.95;;;14.18;;
19605;SDS011;9950;50.168;8.210;2023-12-07T07:04:33;65.90;;;13.90;;
19605;SDS011;9950;50.168;8.210;2023-12-07T07:07:00;76.68;;;13.30;;
19605;SDS011;9950;50.168;8.210;2023-12-07T07:09:28;108.43;;;13.55;;
19605;SDS011;9950;50.168;8.210;2023-12-07T07:11:55;123.40;;;14.45;;
19605;SDS011;9950;50.168;8.210;2023-12-07T07:14:22;117.85;;;14.73;;
19605;SDS011;9950;50.168;8.210;2023-12-07T07:16:49;89.50;;;12.85;;
19605;SDS011;9950;50.168;8.210;2023-12-07T07:19:18;96.47;;;13.82;;
19605;SDS011;9950;50.168;8.210;2023-12-07T07:21:45;112.38;;;13.85;;
19605;SDS011;9950;50.168;8.210;2023-12-07T07:24:12;112.15;;;15.43;;
19605;SDS011;9950;50.168;8.210;2023-12-07T07:26:39;82.28;;;14.05;;
19605;SDS011;9950;50.168;8.210;2023-12-07T07:29:07;107.72;;;15.70;;
19605;SDS011;9950;50.168;8.210;2023-12-07T07:31:34;85.30;;;14.65;;
19605;SDS011;9950;50.168;8.210;2023-12-07T07:34:01;94.95;;;15.05;;
19605;SDS011;9950;50.168;8.210;2023-12-07T07:36:30;94.57;;;14.43;;
19605;SDS011;9950;50.168;8.210;2023-12-07T07:38:58;86.20;;;14.13;;
19605;SDS011;9950;50.168;8.210;2023-12-07T07:41:25;88.00;;;14.38;;
19605;SDS011;9950;50.168;8.210;2023-12-07T07:43:53;72.18;;;12.98;;
19605;SDS011;9950;50.168;8.210;2023-12-07T07:46:20;86.90;;;15.40;;
19605;SDS011;9950;50.168;8.210;2023-12-07T07:48:47;84.47;;;14.70;;
19605;SDS011;9950;50.168;8.210;2023-12-07T07:51:14;92.38;;;16.95;;
19605;SDS011;9950;50.168;8.210;2023-12-07T07:53:43;78.18;;;15.50;;
19605;SDS011;9950;50.168;8.210;2023-12-07T07:56:10;59.70;;;15.25;;
19605;SDS011;9950;50.168;8.210;2023-12-07T07:58:37;46.22;;;12.88;;
19605;SDS011;9950;50.168;8.210;2023-12-07T08:01:05;39.35;;;13.55;;
19605;SDS011;9950;50.168;8.210;2023-12-07T08:03:32;59.65;;;13.43;;
19605;SDS011;9950;50.168;8.210;2023-12-07T08:05:59;48.80;;;13.52;;
19605;SDS011;9950;50.168;8.210;2023-12-07T08:08:27;43.42;;;12.63;;
19605;SDS011;9950;50.168;8.210;2023-12-07T08:10:56;34.05;;;12.95;;
19605;SDS011;9950;50.168;8.210;2023-12-07T08:13:23;43.70;;;13.68;;
19605;SDS011;9950;50.168;8.210;2023-12-07T08:15:50;66.18;;;18.33;;
19605;SDS011;9950;50.168;8.210;2023-12-07T08:18:18;42.42;;;15.02;;
19605;SDS011;9950;50.168;8.210;2023-12-07T08:20:46;46.15;;;15.13;;
19605;SDS011;9950;50.168;8.210;2023-12-07T08:23:13;41.78;;;13.38;;
19605;SDS011;9950;50.168;8.210;2023-12-07T08:25:39;52.28;;;13.93;;
19605;SDS011;9950;50.168;8.210;2023-12-07T08:28:09;64.32;;;14.15;;
19605;SDS011;9950;50.168;8.210;2023-12-07T08:30:36;61.60;;;15.63;;
19605;SDS011;9950;50.168;8.210;2023-12-07T08:33:04;76.72;;;15.18;;
19605;SDS011;9950;50.168;8.210;2023-12-07T08:35:31;49.35;;;14.63;;
19605;SDS011;9950;50.168;8.210;2023-12-07T08:37:58;63.90;;;15.20;;
19605;SDS011;9950;50.168;8.210;2023-12-07T08:40:26;38.25;;;13.65;;
19605;SDS011;9950;50.168;8.210;2023-12-07T08:42:54;51.17;;;15.98;;
19605;SDS011;9950;50.168;8.210;2023-12-07T08:45:23;46.88;;;14.80;;
19605;SDS011;9950;50.168;8.210;2023-12-07T08:47:50;65.18;;;18.23;;
19605;SDS011;9950;50.168;8.210;2023-12-07T08:50:17;78.22;;;15.52;;
19605;SDS011;9950;50.168;8.210;2023-12-07T08:52:44;51.00;;;15.60;;
19605;SDS011;9950;50.168;8.210;2023-12-07T08:55:12;92.10;;;18.70;;
19605;SDS011;9950;50.168;8.210;2023-12-07T08:57:40;106.07;;;16.85;;
19605;SDS011;9950;50.168;8.210;2023-12-07T09:00:08;91.65;;;15.77;;
19605;SDS011;9950;50.168;8.210;2023-12-07T09:02:39;111.43;;;17.70;;
19605;SDS011;9950;50.168;8.210;2023-12-07T09:05:07;111.55;;;17.65;;
19605;SDS011;9950;50.168;8.210;2023-12-07T09:07:35;68.03;;;14.95;;
19605;SDS011;9950;50.168;8.210;2023-12-07T09:10:02;78.78;;;16.00;;
19605;SDS011;9950;50.168;8.210;2023-12-07T09:12:30;80.05;;;15.88;;
19605;SDS011;9950;50.168;8.210;2023-12-07T09:14:57;55.00;;;14.13;;
19605;SDS011;9950;50.168;8.210;2023-12-07T09:17:24;58.33;;;15.98;;
19605;SDS011;9950;50.168;8.210;2023-12-07T09:19:54;40.78;;;13.75;;
19605;SDS011;9950;50.168;8.210;2023-12-07T09:22:21;37.80;;;12.65;;
19605;SDS011;9950;50.168;8.210;2023-12-07T09:24:48;34.90;;;14.05;;
19605;SDS011;9950;50.168;8.210;2023-12-07T09:27:15;27.23;;;12.88;;
19605;SDS011;9950;50.168;8.210;2023-12-07T09:29:43;27.13;;;12.88;;
19605;SDS011;9950;50.168;8.210;2023-12-07T09:32:10;29.05;;;12.73;;
19605;SDS011;9950;50.168;8.210;2023-12-07T09:34:39;31.48;;;14.02;;
19605;SDS011;9950;50.168;8.210;2023-12-07T09:37:07;35.25;;;13.80;;
19605;SDS011;9950;50.168;8.210;2023-12-07T09:39:35;32.13;;;14.05;;
19605;SDS011;9950;50.168;8.210;2023-12-07T09:42:02;28.65;;;12.65;;
19605;SDS011;9950;50.168;8.210;2023-12-07T09:44:29;29.23;;;13.43;;
19605;SDS011;9950;50.168;8.210;2023-12-07T09:46:56;26.35;;;12.23;;
19605;SDS011;9950;50.168;8.210;2023-12-07T09:49:24;29.80;;;12.90;;
19605;SDS011;9950;50.168;8.210;2023-12-07T09:51:51;31.52;;;13.80;;
19605;SDS011;9950;50.168;8.210;2023-12-07T09:54:20;28.80;;;13.48;;
19605;SDS011;9950;50.168;8.210;2023-12-07T09:56:48;27.95;;;13.63;;
19605;SDS011;9950;50.168;8.210;2023-12-07T09:59:18;25.88;;;12.38;;
19605;SDS011;9950;50.168;8.210;2023-12-07T10:01:45;31.85;;;14.50;;
19605;SDS011;9950;50.168;8.210;2023-12-07T10:04:16;28.95;;;13.85;;
19605;SDS011;9950;50.168;8.210;2023-12-07T10:06:43;33.40;;;14.93;;
19605;SDS011;9950;50.168;8.210;2023-12-07T10:09:11;34.78;;;15.10;;
19605;SDS011;9950;50.168;8.210;2023-12-07T10:11:40;33.50;;;14.82;;
19605;SDS011;9950;50.168;8.210;2023-12-07T10:14:08;31.48;;;14.23;;
19605;SDS011;9950;50.168;8.210;2023-12-07T10:16:35;28.67;;;13.60;;
19605;SDS011;9950;50.168;8.210;2023-12-07T10:19:13;33.80;;;14.98;;
19605;SDS011;9950;50.168;8.210;2023-12-07T10:21:42;29.50;;;13.45;;
19605;SDS011;9950;50.168;8.210;2023-12-07T10:24:10;30.48;;;14.32;;
19605;SDS011;9950;50.168;8.210;2023-12-07T10:26:37;27.30;;;13.95;;
19605;SDS011;9950;50.168;8.210;2023-12-07T10:29:06;25.42;;;12.95;;
19605;SDS011;9950;50.168;8.210;2023-12-07T10:31:33;31.13;;;12.98;;
19605;SDS011;9950;50.168;8.210;2023-12-07T10:34:01;27.23;;;12.57;;
19605;SDS011;9950;50.168;8.210;2023-12-07T10:36:28;27.00;;;13.23;;
19605;SDS011;9950;50.168;8.210;2023-12-07T10:38:55;26.65;;;13.43;;
19605;SDS011;9950;50.168;8.210;2023-12-07T10:41:23;26.52;;;13.55;;
19605;SDS011;9950;50.168;8.210;2023-12-07T10:43:51;32.58;;;13.35;;
19605;SDS011;9950;50.168;8.210;2023-12-07T10:46:21;23.45;;;12.70;;
19605;SDS011;9950;50.168;8.210;2023-12-07T10:48:48;26.40;;;11.98;;
19605;SDS011;9950;50.168;8.210;2023-12-07T10:51:17;22.10;;;11.75;;
19605;SDS011;9950;50.168;8.210;2023-12-07T10:53:49;23.38;;;12.00;;
19605;SDS011;9950;50.168;8.210;2023-12-07T10:56:20;20.33;;;10.50;;
19605;SDS011;9950;50.168;8.210;2023-12-07T10:58:51;20.15;;;10.65;;
19605;SDS011;9950;50.168;8.210;2023-12-07T11:01:21;17.83;;;9.52;;
19605;SDS011;9950;50.168;8.210;2023-12-07T11:03:49;20.23;;;10.82;;
19605;SDS011;9950;50.168;8.210;2023-12-07T11:06:17;19.83;;;10.68;;
19605;SDS011;9950;50.168;8.210;2023-12-07T11:08:46;20.38;;;10.77;;
19605;SDS011;9950;50.168;8.210;2023-12-07T11:11:15;21.83;;;11.77;;
19605;SDS011;9950;50.168;8.210;2023-12-07T11:13:47;19.95;;;10.25;;
19605;SDS011;9950;50.168;8.210;2023-12-07T11:16:16;17.50;;;9.73;;
19605;SDS011;9950;50.168;8.210;2023-12-07T11:18:45;17.58;;;9.55;;
19605;SDS011;9950;50.168;8.210;2023-12-07T11:21:12;17.63;;;10.30;;
19605;SDS011;9950;50.168;8.210;2023-12-07T11:23:39;20.13;;;9.90;;
19605;SDS011;9950;50.168;8.210;2023-12-07T11:26:08;17.42;;;9.82;;
19605;SDS011;9950;50.168;8.210;2023-12-07T11:28:35;17.73;;;9.27;;
19605;SDS011;9950;50.168;8.210;2023-12-07T11:31:04;19.58;;;10.40;;
19605;SDS011;9950;50.168;8.210;2023-12-07T11:33:32;17.20;;;9.23;;
19605;SDS011;9950;50.168;8.210;2023-12-07T11:36:04;18.95;;;9.30;;
19605;SDS011;9950;50.168;8.210;2023-12-07T11:38:32;18.20;;;10.02;;
19605;SDS011;9950;50.168;8.210;2023-12-07T11:40:59;18.50;;;10.20;;
19605;SDS011;9950;50.168;8.210;2023-12-07T11:43:36;17.27;;;10.38;;
19605;SDS011;9950;50.168;8.210;2023-12-07T11:46:05;18.30;;;9.10;;
19605;SDS011;9950;50.168;8.210;2023-12-07T11:48:34;19.45;;;9.85;;
19605;SDS011;9950;50.168;8.210;2023-12-07T11:51:02;23.98;;;11.10;;
19605;SDS011;9950;50.168;8.210;2023-12-07T11:53:31;20.33;;;10.23;;
19605;SDS011;9950;50.168;8.210;2023-12-07T11:55:59;20.13;;;10.70;;
19605;SDS011;9950;50.168;8.210;2023-12-07T11:58:27;25.00;;;10.95;;
19605;SDS011;9950;50.168;8.210;2023-12-07T12:00:55;16.27;;;9.23;;
19605;SDS011;9950;50.168;8.210;2023-12-07T12:03:22;20.27;;;10.60;;
19605;SDS011;9950;50.168;8.210;2023-12-07T12:05:50;23.60;;;11.30;;
19605;SDS011;9950;50.168;8.210;2023-12-07T12:08:17;21.50;;;10.48;;
19605;SDS011;9950;50.168;8.210;2023-12-07T12:10:46;19.38;;;10.73;;
19605;SDS011;9950;50.168;8.210;2023-12-07T12:13:15;24.20;;;11.45;;
19605;SDS011;9950;50.168;8.210;2023-12-07T12:15:42;20.75;;;11.10;;
19605;SDS011;9950;50.168;8.210;2023-12-07T12:18:09;18.73;;;10.38;;
19605;SDS011;9950;50.168;8.210;2023-12-07T12:20:39;23.02;;;11.57;;
19605;SDS011;9950;50.168;8.210;2023-12-07T12:23:06;20.85;;;11.25;;
19605;SDS011;9950;50.168;8.210;2023-12-07T12:25:34;28.38;;;13.48;;
19605;SDS011;9950;50.168;8.210;2023-12-07T12:28:02;27.50;;;12.32;;
19605;SDS011;9950;50.168;8.210;2023-12-07T12:30:30;22.23;;;11.77;;
19605;SDS011;9950;50.168;8.210;2023-12-07T12:32:58;25.35;;;12.40;;
19605;SDS011;9950;50.168;8.210;2023-12-07T12:35:25;28.10;;;12.85;;
19605;SDS011;9950;50.168;8.210;2023-12-07T12:37:53;31.50;;;14.73;;
19605;SDS011;9950;50.168;8.210;2023-12-07T12:40:21;31.27;;;13.88;;
19605;SDS011;9950;50.168;8.210;2023-12-07T12:42:49;30.25;;;14.88;;
19605;SDS011;9950;50.168;8.210;2023-12-07T12:45:18;30.25;;;13.63;;
19605;SDS011;9950;50.168;8.210;2023-12-07T12:47:46;30.13;;;13.50;;
19605;SDS011;9950;50.168;8.210;2023-12-07T12:52:57;29.33;;;12.82;;
19605;SDS011;9950;50.168;8.210;2023-12-07T12:55:25;24.48;;;12.70;;
19605;SDS011;9950;50.168;8.210;2023-12-07T12:57:54;28.33;;;12.68;;
19605;SDS011;9950;50.168;8.210;2023-12-07T13:00:23;28.17;;;12.63;;
19605;SDS011;9950;50.168;8.210;2023-12-07T13:02:51;33.22;;;14.23;;
19605;SDS011;9950;50.168;8.210;2023-12-07T13:05:18;31.52;;;12.52;;
19605;SDS011;9950;50.168;8.210;2023-12-07T13:07:45;29.98;;;12.10;;
19605;SDS011;9950;50.168;8.210;2023-12-07T13:10:14;32.17;;;11.32;;
19605;SDS011;9950;50.168;8.210;2023-12-07T13:12:41;33.85;;;12.23;;
19605;SDS011;9950;50.168;8.210;2023-12-07T13:15:10;30.52;;;12.85;;
19605;SDS011;9950;50.168;8.210;2023-12-07T13:17:40;30.90;;;12.70;;
19605;SDS011;9950;50.168;8.210;2023-12-07T13:20:07;38.60;;;14.82;;
19605;SDS011;9950;50.168;8.210;2023-12-07T13:22:36;39.72;;;14.18;;
19605;SDS011;9950;50.168;8.210;2023-12-07T13:25:04;36.55;;;12.75;;
19605;SDS011;9950;50.168;8.210;2023-12-07T13:27:31;38.13;;;14.48;;
19605;SDS011;9950;50.168;8.210;2023-12-07T13:29:59;46.72;;;14.07;;
19605;SDS011;9950;50.168;8.210;2023-12-07T13:32:26;40.92;;;12.85;;
19605;SDS011;9950;50.168;8.210;2023-12-07T13:34:54;53.90;;;13.90;;
19605;SDS011;9950;50.168;8.210;2023-12-07T13:37:21;47.95;;;14.38;;
19605;SDS011;9950;50.168;8.210;2023-12-07T13:39:49;44.38;;;11.93;;
19605;SDS011;9950;50.168;8.210;2023-12-07T13:42:21;44.58;;;13.90;;
19605;SDS011;9950;50.168;8.210;2023-12-07T13:44:51;55.15;;;13.55;;
19605;SDS011;9950;50.168;8.210;2023-12-07T13:47:18;66.85;;;13.73;;
19605;SDS011;9950;50.168;8.210;2023-12-07T13:49:48;62.05;;;18.15;;
19605;SDS011;9950;50.168;8.210;2023-12-07T13:52:17;55.72;;;15.90;;
19605;SDS011;9950;50.168;8.210;2023-12-07T13:54:44;53.05;;;14.90;;
19605;SDS011;9950;50.168;8.210;2023-12-07T13:57:11;44.80;;;13.80;;
19605;SDS011;9950;50.168;8.210;2023-12-07T13:59:38;42.85;;;12.88;;
19605;SDS011;9950;50.168;8.210;2023-12-07T14:02:05;38.40;;;12.93;;
19605;SDS011;9950;50.168;8.210;2023-12-07T14:04:33;41.45;;;13.30;;
19605;SDS011;9950;50.168;8.210;2023-12-07T14:07:07;49.90;;;14.48;;
19605;SDS011;9950;50.168;8.210;2023-12-07T14:09:36;38.40;;;13.07;;
19605;SDS011;9950;50.168;8.210;2023-12-07T14:12:03;36.92;;;12.63;;
19605;SDS011;9950;50.168;8.210;2023-12-07T14:14:31;39.80;;;13.63;;
19605;SDS011;9950;50.168;8.210;2023-12-07T14:16:58;41.28;;;15.23;;
19605;SDS011;9950;50.168;8.210;2023-12-07T14:19:25;38.20;;;15.02;;
19605;SDS011;9950;50.168;8.210;2023-12-07T14:21:53;39.20;;;15.88;;
19605;SDS011;9950;50.168;8.210;2023-12-07T14:24:22;37.30;;;13.98;;
19605;SDS011;9950;50.168;8.210;2023-12-07T14:26:51;33.80;;;13.88;;
19605;SDS011;9950;50.168;8.210;2023-12-07T14:29:18;38.70;;;16.88;;
19605;SDS011;9950;50.168;8.210;2023-12-07T14:31:46;35.80;;;14.20;;
19605;SDS011;9950;50.168;8.210;2023-12-07T14:34:13;32.00;;;13.68;;
19605;SDS011;9950;50.168;8.210;2023-12-07T14:36:41;35.88;;;14.27;;
19605;SDS011;9950;50.168;8.210;2023-12-07T14:39:09;31.65;;;13.57;;